createdAt,value
2023-11-24T00:02:26.655Z,105354.00
2023-11-24T00:08:28.924Z,105351.00
2023-11-24T00:14:31.191Z,105352.00
2023-11-24T00:20:33.702Z,105353.00
2023-11-24T00:26:36.174Z,105354.00
2023-11-24T00:32:38.509Z,105354.00
2023-11-24T00:38:41.047Z,105352.00
2023-11-24T00:44:43.579Z,105353.00
2023-11-24T00:50:45.922Z,105353.00
2023-11-24T00:56:48.232Z,105356.00
2023-11-24T01:02:51.214Z,105350.00
2023-11-24T01:08:53.779Z,105350.00
2023-11-24T01:14:57.259Z,105350.00
2023-11-24T01:21:00.143Z,105354.00
2023-11-24T01:27:04.031Z,105351.00
2023-11-24T01:33:06.552Z,105355.00
2023-11-24T01:39:11.980Z,105355.00
2023-11-24T01:45:14.385Z,105345.00
2023-11-24T01:51:17.272Z,105350.00
2023-11-24T01:57:19.573Z,105348.00
2023-11-24T02:03:22.059Z,105348.00
2023-11-24T02:09:25.572Z,105350.00
2023-11-24T02:15:28.001Z,105354.00
2023-11-24T02:21:30.546Z,105347.00
2023-11-24T02:27:33.019Z,105345.00
2023-11-24T02:33:35.850Z,105351.00
2023-11-24T02:39:38.242Z,105350.00
2023-11-24T02:45:41.852Z,105354.00
2023-11-24T02:51:45.528Z,105351.00
2023-11-24T02:57:50.024Z,105349.00
2023-11-24T03:03:53.872Z,105350.00
2023-11-24T03:09:56.456Z,105350.00
2023-11-24T03:15:58.994Z,105351.00
2023-11-24T03:22:01.338Z,105350.00
2023-11-24T03:28:04.096Z,105352.00
2023-11-24T03:34:06.965Z,105346.00
2023-11-24T03:40:10.860Z,105351.00
2023-11-24T03:46:13.858Z,105349.00
2023-11-24T03:52:16.787Z,105352.00
2023-11-24T03:58:19.346Z,105347.00
2023-11-24T04:04:22.368Z,105354.00
2023-11-24T04:10:25.323Z,105352.00
2023-11-24T04:16:27.847Z,105350.00
2023-11-24T04:22:30.076Z,105350.00
2023-11-24T04:28:32.318Z,105351.00
2023-11-24T04:34:34.757Z,105352.00
2023-11-24T04:40:37.210Z,105351.00
2023-11-24T04:46:39.526Z,105352.00
2023-11-24T04:52:41.865Z,105347.00
2023-11-24T04:58:44.814Z,105345.00
2023-11-24T05:04:48.500Z,105353.00
2023-11-24T05:10:50.781Z,105351.00
2023-11-24T05:16:53.128Z,105348.00
2023-11-24T05:22:55.516Z,105349.00
2023-11-24T05:28:57.733Z,105351.00
2023-11-24T05:35:00.155Z,105349.00
2023-11-24T05:41:02.552Z,105354.00
2023-11-24T05:47:06.335Z,105350.00
2023-11-24T05:53:08.720Z,105355.00
2023-11-24T05:59:11.074Z,105347.00
2023-11-24T06:05:14.030Z,105345.00
2023-11-24T06:11:19.549Z,105349.00
2023-11-24T06:17:21.834Z,105350.00
2023-11-24T06:23:24.335Z,105351.00
2023-11-24T06:29:26.640Z,105350.00
2023-11-24T06:35:28.931Z,105352.00
2023-11-24T06:41:31.330Z,105353.00
2023-11-24T06:47:33.871Z,105350.00
2023-11-24T06:53:36.318Z,105354.00
2023-11-24T06:59:38.901Z,105353.00
2023-11-24T07:05:41.240Z,105355.00
2023-11-24T07:11:43.832Z,105355.00
2023-11-24T07:17:46.453Z,105359.00
2023-11-24T07:23:48.702Z,105358.00
2023-11-24T07:29:50.975Z,105359.00
2023-11-24T07:35:53.643Z,105355.00
2023-11-24T07:41:57.005Z,105365.00
2023-11-24T07:48:02.078Z,105358.00
2023-11-24T07:54:04.960Z,105356.00
2023-11-24T08:00:12.181Z,105362.00
2023-11-24T08:06:16.685Z,105363.00
2023-11-24T08:12:22.804Z,105359.00
2023-11-24T08:18:26.221Z,105363.00
2023-11-24T08:24:28.792Z,105357.00
2023-11-24T08:30:33.745Z,105359.00
2023-11-24T08:36:36.626Z,105359.00
2023-11-24T08:42:40.258Z,105358.00
2023-11-24T08:48:42.647Z,105362.00
2023-11-24T08:54:44.993Z,105360.00
2023-11-24T09:00:48.404Z,105359.00
2023-11-24T09:06:51.843Z,105359.00
2023-11-24T09:12:54.265Z,105359.00
2023-11-24T09:19:00.928Z,105356.00
2023-11-24T09:25:04.059Z,105358.00
2023-11-24T09:31:10.646Z,105359.00
2023-11-24T09:37:13.049Z,105358.00
2023-11-24T09:43:15.801Z,105358.00
2023-11-24T09:49:18.163Z,105357.00
2023-11-24T09:55:20.654Z,105364.00
2023-11-24T10:01:27.488Z,105355.00
2023-11-24T10:07:30.775Z,105357.00
2023-11-24T10:13:33.957Z,105358.00
2023-11-24T10:19:39.572Z,105359.00
2023-11-24T10:25:41.858Z,105359.00
2023-11-24T10:31:46.079Z,105360.00
2023-11-24T10:37:49.960Z,105365.00
2023-11-24T10:43:53.015Z,105364.00
2023-11-24T10:50:24.997Z,105360.00
2023-11-24T10:56:29.961Z,105357.00
2023-11-24T11:02:34.516Z,105363.00
2023-11-24T11:08:54.155Z,105359.00
2023-11-24T11:14:57.798Z,105364.00
2023-11-24T11:21:29.636Z,105362.00
2023-11-24T11:27:36.861Z,105359.00
2023-11-24T11:33:46.489Z,105361.00
2023-11-24T11:40:01.051Z,105363.00
2023-11-24T11:46:04.901Z,105360.00
2023-11-24T11:52:13.142Z,105355.00
2023-11-24T11:58:15.889Z,105358.00
2023-11-24T12:04:18.377Z,105358.00
2023-11-24T12:10:22.581Z,105355.00
2023-11-24T12:16:30.007Z,105359.00
2023-11-24T12:22:32.448Z,105358.00
2023-11-24T12:28:39.172Z,105353.00
2023-11-24T12:34:45.377Z,105358.00
2023-11-24T12:40:49.445Z,105358.00
2023-11-24T12:46:51.810Z,105359.00
2023-11-24T12:52:55.633Z,105361.00
2023-11-24T12:59:03.666Z,105359.00
2023-11-24T13:05:07.881Z,105357.00
2023-11-24T13:11:10.194Z,105358.00
2023-11-24T13:17:13.411Z,105356.00
2023-11-24T13:23:15.966Z,105359.00
2023-11-24T13:29:18.341Z,105357.00
2023-11-24T13:35:21.655Z,105355.00
2023-11-24T13:41:24.251Z,105359.00
2023-11-24T13:47:27.075Z,105358.00
2023-11-24T13:53:32.686Z,105358.00
2023-11-24T13:59:35.004Z,105356.00
2023-11-24T14:05:37.473Z,105356.00
2023-11-24T14:11:40.164Z,105357.00
2023-11-24T14:17:42.582Z,105361.00
2023-11-24T14:23:44.938Z,105356.00
2023-11-24T14:29:47.207Z,105356.00
2023-11-24T14:35:49.576Z,105356.00
2023-11-24T14:41:52.983Z,105359.00
2023-11-24T14:47:56.026Z,105360.00
2023-11-24T14:54:01.389Z,105356.00
2023-11-24T15:00:04.371Z,105354.00
2023-11-24T15:06:15.819Z,105355.00
2023-11-24T15:12:21.058Z,105355.00
2023-11-24T15:18:23.408Z,105363.00
2023-11-24T15:24:31.350Z,105356.00
2023-11-24T15:30:34.758Z,105359.00
2023-11-24T15:36:37.228Z,105357.00
2023-11-24T15:42:40.516Z,105361.00
2023-11-24T15:48:42.753Z,105356.00
2023-11-24T15:54:45.695Z,105356.00
2023-11-24T16:00:49.019Z,105357.00
2023-11-24T16:06:57.703Z,105358.00
2023-11-24T16:13:05.425Z,105356.00
2023-11-24T16:19:07.839Z,105357.00
2023-11-24T16:25:10.976Z,105357.00
2023-11-24T16:31:14.024Z,105356.00
2023-11-24T16:37:16.869Z,105354.00
2023-11-24T16:43:19.802Z,105359.00
2023-11-24T16:49:22.736Z,105358.00
2023-11-24T16:55:25.130Z,105358.00
2023-11-24T17:01:27.824Z,105356.00
2023-11-24T17:07:30.115Z,105357.00
2023-11-24T17:13:32.502Z,105365.00
2023-11-24T17:19:35.336Z,105354.00
2023-11-24T17:25:37.924Z,105356.00
2023-11-24T17:31:44.638Z,105359.00
2023-11-24T17:37:48.235Z,105360.00
2023-11-24T17:43:51.086Z,105358.00
2023-11-24T17:49:53.352Z,105355.00
2023-11-24T17:55:56.218Z,105357.00
2023-11-24T18:02:00.505Z,105353.00
2023-11-24T18:08:04.867Z,105355.00
2023-11-24T18:14:07.519Z,105357.00
2023-11-24T18:20:12.657Z,105354.00
2023-11-24T18:26:17.492Z,105356.00
2023-11-24T18:32:20.039Z,105356.00
2023-11-24T18:38:23.382Z,105356.00
2023-11-24T18:44:25.781Z,105360.00
2023-11-24T18:50:29.037Z,105356.00
2023-11-24T18:56:31.584Z,105356.00
2023-11-24T19:02:34.633Z,105353.00
2023-11-24T19:08:37.173Z,105356.00
2023-11-24T19:14:39.762Z,105357.00
2023-11-24T19:20:42.237Z,105355.00
2023-11-24T19:26:44.650Z,105353.00
2023-11-24T19:32:47.460Z,105352.00
2023-11-24T19:38:52.414Z,105356.00
2023-11-24T19:44:54.713Z,105357.00
2023-11-24T19:50:57.351Z,105351.00
2023-11-24T19:57:00.955Z,105352.00
2023-11-24T20:03:03.973Z,105351.00
2023-11-24T20:09:10.102Z,105354.00
2023-11-24T20:15:12.607Z,105356.00
2023-11-24T20:21:15.696Z,105355.00
2023-11-24T20:27:18.286Z,105354.00
2023-11-24T20:33:21.609Z,105356.00
2023-11-24T20:39:24.621Z,105355.00
2023-11-24T20:45:27.165Z,105352.00
2023-11-24T20:51:30.427Z,105352.00
2023-11-24T20:57:32.888Z,105356.00
2023-11-24T21:03:36.058Z,105353.00
2023-11-24T21:09:41.320Z,105353.00
2023-11-24T21:15:46.199Z,105351.00
2023-11-24T21:21:48.809Z,105356.00
2023-11-24T21:27:51.716Z,105354.00
2023-11-24T21:33:54.233Z,105353.00
2023-11-24T21:40:02.064Z,105355.00
2023-11-24T21:46:04.623Z,105353.00
2023-11-24T21:52:07.717Z,105356.00
2023-11-24T21:58:10.233Z,105356.00
2023-11-24T22:04:12.750Z,105355.00
2023-11-24T22:10:16.014Z,105353.00
2023-11-24T22:16:18.727Z,105353.00
2023-11-24T22:22:21.446Z,105354.00
2023-11-24T22:28:24.738Z,105359.00
2023-11-24T22:34:27.273Z,105355.00
2023-11-24T22:40:29.825Z,105355.00
2023-11-24T22:46:34.288Z,105356.00
2023-11-24T22:52:37.949Z,105356.00
2023-11-24T22:58:40.528Z,105359.00
2023-11-24T23:04:43.264Z,105352.00
2023-11-24T23:10:47.680Z,105356.00
2023-11-24T23:16:50.300Z,105357.00
2023-11-24T23:22:52.640Z,105355.00
2023-11-24T23:28:55.072Z,105357.00
2023-11-24T23:34:57.985Z,105354.00
2023-11-24T23:41:04.025Z,105352.00
2023-11-24T23:47:07.146Z,105359.00
2023-11-24T23:53:10.129Z,105355.00
2023-11-24T23:59:13.443Z,105352.00
